Pagrindinis puslapis
METAR-TAF:

METAR-TAF

Oro uostai :

Blagoveščenskas, Rusija

platuma: 50-25-30N, ilguma: 127-24-48E, Aukštis: 195 m

Dabartinis oras

Ataskaita buvo paskelbta 50 minutes, ne 07:00 UTC
Vėjas 10 kt iš Šiaurės, svyruoja nuo Šiaurės Vakarų ir Šiaurės Rytų
Temperatūra 21°C
Drėgmė 46%
Slėgis 1002 hPa
Matomumas 10 km arba daugiau
Išsisklaidę debesys ne aukštis 3300 ft, Liūtiniai kamuoliniai debesys.

METAR: UHBB 190700Z 36005MPS 320V040 9999 SCT033CB 21/09 Q1002 R36R/090058 NOSIG RMK QFE734/0979

Laikas: 16:50 (07:50 UTC)

Prognozė

Ataskaita buvo paskelbta 3 valandos ir 10 minutes, ne 04:40 UTC
Prognozė galioja nuo 19 metu 06 UTC su 20 metu 06 UTC
Vėjas 6 kt iš Šiaurės su gūsio iki 16 kt
Matomumas 10 km arba daugiau
Išsisklaidę debesys ne aukštis 3000 ft, Liūtiniai kamuoliniai debesys.

TAF: UHBB 190440Z 1906/2006 36003G08MPS 9999 SCT030CB

Orai ataskaitas ir orų prognozės (METAR, TAF).

turimą stotys yra geltonos ir raudonos taškus žemėlapyje.

Perkelti pele per norėdami pamatyti stoties vardą.

Tada spustelėkite, norėdami matyti oro stebėjimo ir prognozės.

Norėdami pakeisti žemėlapį: spustelėkite ant žalios mygtukų su juodo kryžiaus žemyn,; žalią mygtuką su brūkšneliu, jei norite nutolinti; arba žalių rodyklių gretimoms žemėlapius.


METAR-TAF: